Time;durP1;ratioP1;P1;durP2;ratioP2;P2;SDS_P1;SDS_P2;PMS_P1;PMS_P2;Temp;Humidity;BMP_temperature;BMP_pressure;BME280_temperature;BME280_humidity;BME280_pressure;Samples;Min_cycle;Max_cycle;Signal;HPM_P1;HPM_P2
2023/07/13 00:00:38;;;;;;;9.27;6.13;;;;;;;26.40;100.00;101237.09;2078891;28;20272;-65
2023/07/13 00:01:39;;;;;;;8.53;5.80;;;;;;;26.39;100.00;101246.13;2081208;28;20219;-66
2023/07/13 00:02:39;;;;;;;7.53;6.20;;;;;;;26.30;100.00;101250.06;2081877;28;20196;-65
2023/07/13 00:03:40;;;;;;;9.97;6.47;;;;;;;26.14;100.00;101231.06;2082159;28;20267;-65
2023/07/13 00:04:41;;;;;;;6.47;5.73;;;;;;;25.70;100.00;101171.63;2089845;28;20168;-65
2023/07/13 00:05:42;;;;;;;7.50;6.53;;;;;;;26.19;100.00;101261.50;2082198;28;20188;-65
2023/07/13 00:06:44;;;;;;;10.47;6.53;;;;;;;25.77;100.00;101208.00;2088589;28;20226;-66
2023/07/13 00:07:46;;;;;;;7.33;6.23;;;;;;;25.71;100.00;101206.50;2083791;28;20189;-66
2023/07/13 00:08:47;;;;;;;8.27;6.40;;;;;;;26.08;100.00;101266.47;2081798;28;20201;-66
2023/07/13 00:09:48;;;;;;;8.73;6.33;;;;;;;26.11;100.00;101266.19;2081436;28;20307;-65
2023/07/13 00:10:54;;;;;;;10.07;6.40;;;;;;;25.54;100.00;101174.59;2081968;28;20254;-66
2023/07/13 00:11:56;;;;;;;7.60;5.93;;;;;;;26.18;100.00;101256.34;2081493;28;20157;-66
2023/07/13 00:12:57;;;;;;;6.90;5.83;;;;;;;26.18;100.00;101259.97;2081695;28;20177;-66
2023/07/13 00:13:57;;;;;;;9.67;6.27;;;;;;;26.15;100.00;101263.09;2081561;28;20189;-66
2023/07/13 00:14:59;;;;;;;10.10;6.10;;;;;;;26.08;100.00;101266.47;2081394;28;20571;-65
2023/07/13 00:16:00;;;;;;;7.07;5.77;;;;;;;26.02;100.00;101260.06;2080894;28;20710;-65
2023/07/13 00:17:01;;;;;;;8.60;5.90;;;;;;;25.97;100.00;101261.63;2087179;28;20230;-66
2023/07/13 00:18:01;;;;;;;8.60;5.93;;;;;;;24.90;100.00;101079.38;2076103;28;20220;-66
2023/07/13 00:19:02;;;;;;;6.77;6.07;;;;;;;25.40;100.00;101159.44;2077673;28;20197;-65
2023/07/13 00:20:03;;;;;;;6.63;5.10;;;;;;;26.09;100.00;101250.97;2081432;28;20555;-65
2023/07/13 00:21:07;;;;;;;9.87;6.03;;;;;;;26.12;100.00;101249.94;2081661;28;20185;-66
2023/07/13 00:22:07;;;;;;;7.37;5.77;;;;;;;25.64;100.00;101175.81;2082789;28;20177;-65
2023/07/13 00:23:07;;;;;;;6.93;6.17;;;;;;;25.70;100.00;101185.09;2088829;28;20180;-65
2023/07/13 00:24:15;;;;;;;7.63;5.80;;;;;;;26.19;100.00;101258.66;2081391;28;20383;-66
2023/07/13 00:25:16;;;;;;;6.37;5.70;;;;;;;26.19;100.00;101260.72;2081729;28;20639;-66
2023/07/13 00:26:17;;;;;;;7.23;5.93;;;;;;;26.16;100.00;101254.03;2081484;28;20193;-66
2023/07/13 00:27:18;;;;;;;9.57;6.03;;;;;;;26.11;100.00;101256.91;2081365;28;20196;-65
2023/07/13 00:28:18;;;;;;;7.73;6.00;;;;;;;26.10;100.00;101256.13;2080786;28;20201;-65
2023/07/13 00:29:20;;;;;;;7.30;5.77;;;;;;;26.12;100.00;101256.41;2080568;28;20339;-65
2023/07/13 00:30:21;;;;;;;11.90;6.07;;;;;;;26.15;100.00;101255.34;2078525;28;20641;-65
2023/07/13 00:31:22;;;;;;;7.37;5.93;;;;;;;26.16;100.00;101253.28;2076204;28;20182;-65
2023/07/13 00:32:22;;;;;;;7.67;5.87;;;;;;;26.17;100.00;101258.44;2089254;28;20212;-65
2023/07/13 00:33:23;;;;;;;6.77;5.93;;;;;;;26.19;100.00;101258.66;2081800;28;20189;-65
2023/07/13 00:34:24;;;;;;;6.43;5.67;;;;;;;26.21;100.00;101258.91;2081329;28;20287;-66
2023/07/13 00:35:26;;;;;;;7.33;5.67;;;;;;;25.60;100.00;101161.91;2080934;28;20576;-65
2023/07/13 00:36:26;;;;;;;7.13;5.27;;;;;;;26.23;100.00;101249.88;2081178;28;20275;-65
2023/07/13 00:37:27;;;;;;;8.53;5.10;;;;;;;25.52;100.00;101148.78;2080617;28;20193;-65
2023/07/13 00:38:27;;;;;;;6.17;5.33;;;;;;;26.18;100.00;101247.81;2081082;28;20284;-65
2023/07/13 00:39:27;;;;;;;6.57;5.90;;;;;;;26.10;100.00;101227.72;2080665;28;20188;-66
2023/07/13 00:40:28;;;;;;;9.03;5.50;;;;;;;26.02;100.00;101226.75;2081098;28;20214;-66
2023/07/13 00:41:28;;;;;;;9.87;5.73;;;;;;;26.18;100.00;101245.78;2081769;28;20184;-66
2023/07/13 00:42:29;;;;;;;9.87;6.00;;;;;;;26.18;100.00;101242.16;2081148;28;20193;-65
2023/07/13 00:43:29;;;;;;;7.30;5.93;;;;;;;25.59;100.00;101151.84;2081036;28;20220;-66
2023/07/13 00:44:30;;;;;;;11.50;5.50;;;;;;;26.16;100.00;101239.06;2081078;28;20567;-65
2023/07/13 00:45:30;;;;;;;7.87;6.03;;;;;;;26.13;100.00;101238.06;2081357;28;20718;-65
2023/07/13 00:46:33;;;;;;;8.70;5.87;;;;;;;26.16;100.00;101241.91;2081264;28;20654;-66
2023/07/13 00:47:33;;;;;;;8.17;5.77;;;;;;;26.15;100.00;101235.44;2081166;28;20327;-66
2023/07/13 00:48:37;;;;;;;6.67;5.40;;;;;;;26.14;100.00;101236.75;2081284;28;20243;-65
2023/07/13 00:49:37;;;;;;;8.57;5.50;;;;;;;25.23;100.00;101098.34;2081102;28;20209;-66
2023/07/13 00:50:39;;;;;;;6.67;5.73;;;;;;;25.38;100.00;101124.34;2081816;28;20219;-65
2023/07/13 00:51:53;;;;;;;6.60;5.60;;;;;;;26.13;100.00;101245.78;2081133;28;20192;-66
2023/07/13 00:52:57;;;;;;;7.90;5.70;;;;;;;26.10;100.00;101241.19;2073701;28;20712;-65
2023/07/13 00:54:02;;;;;;;7.97;5.90;;;;;;;26.09;100.00;101239.59;2080473;28;20250;-65
2023/07/13 00:55:04;;;;;;;8.30;5.93;;;;;;;26.04;100.00;101243.25;2081264;28;20200;-65
2023/07/13 00:56:05;;;;;;;9.00;6.27;;;;;;;26.06;100.00;101235.75;2081133;28;20199;-65
2023/07/13 00:57:13;;;;;;;9.57;5.73;;;;;;;25.74;100.00;101192.00;2081286;28;20204;-66
2023/07/13 00:58:15;;;;;;;10.13;5.60;;;;;;;25.64;100.00;101175.81;2081175;28;20192;-66
2023/07/13 00:59:18;;;;;;;12.77;5.87;;;;;;;26.07;100.00;101240.16;2080558;28;20221;-66
2023/07/13 01:00:21;;;;;;;8.13;6.10;;;;;;;25.59;100.00;101171.69;2080541;28;20228;-65
2023/07/13 01:01:22;;;;;;;7.67;5.20;;;;;;;26.02;100.00;101237.34;2081075;28;20188;-65
2023/07/13 01:02:24;;;;;;;9.03;5.97;;;;;;;26.05;100.00;101248.41;2081013;28;20245;-65
2023/07/13 01:03:24;;;;;;;11.43;6.23;;;;;;;26.05;100.00;101245.56;2073431;28;20651;-65
2023/07/13 01:04:26;;;;;;;13.40;6.30;;;;;;;26.03;100.00;101244.56;2080815;28;20658;-65
2023/07/13 01:05:26;;;;;;;13.47;6.10;;;;;;;25.99;100.00;101239.16;2081182;28;20238;-65
2023/07/13 01:06:28;;;;;;;9.47;6.43;;;;;;;25.48;100.00;101154.72;2080588;28;20254;-65
2023/07/13 01:07:28;;;;;;;10.13;5.83;;;;;;;26.00;100.00;101239.94;2081298;28;20570;-66
2023/07/13 01:08:29;;;;;;;9.10;6.07;;;;;;;26.00;100.00;101232.19;2081116;28;20251;-65
2023/07/13 01:09:29;;;;;;;9.60;6.03;;;;;;;25.99;100.00;101233.47;2078674;28;20332;-66
2023/07/13 01:10:38;;;;;;;10.17;5.70;;;;;;;25.98;100.00;101226.25;2072910;28;20193;-65
2023/07/13 01:11:39;;;;;;;10.67;5.90;;;;;;;25.98;100.00;101231.94;2074432;28;20166;-65
2023/07/13 01:12:40;;;;;;;10.90;6.40;;;;;;;25.97;100.00;101236.09;2080937;28;20177;-66
2023/07/13 01:13:40;;;;;;;6.30;5.53;;;;;;;25.93;100.00;101235.56;2081631;28;20169;-65
2023/07/13 01:14:41;;;;;;;7.13;5.83;;;;;;;25.73;100.00;101203.88;2080576;28;20197;-65
2023/07/13 01:15:43;;;;;;;8.87;5.80;;;;;;;25.91;100.00;101229.66;2075835;28;20210;-65
2023/07/13 01:16:47;;;;;;;10.87;5.87;;;;;;;25.91;100.00;101237.38;2081075;28;20205;-65
2023/07/13 01:17:47;;;;;;;13.70;6.70;;;;;;;25.90;100.00;101235.84;2081358;28;20181;-65
2023/07/13 01:18:47;;;;;;;23.70;7.43;;;;;;;25.90;100.00;101238.66;2082626;28;20227;-65
2023/07/13 01:19:48;;;;;;;24.53;8.23;;;;;;;25.91;100.00;101243.03;2077598;28;20211;-65
2023/07/13 01:20:57;;;;;;;28.87;7.70;;;;;;;25.91;100.00;101243.03;2077711;28;20536;-65
2023/07/13 01:21:58;;;;;;;14.67;6.90;;;;;;;25.93;100.00;101234.78;2072645;28;20690;-65
2023/07/13 01:22:59;;;;;;;11.20;5.53;;;;;;;25.89;100.00;101235.03;2081556;28;20585;-65
2023/07/13 01:24:00;;;;;;;11.50;5.93;;;;;;;25.36;100.00;101158.91;2080508;28;20181;-65
2023/07/13 01:25:00;;;;;;;16.60;6.40;;;;;;;25.82;100.00;101229.94;2074803;28;20229;-65
2023/07/13 01:26:01;;;;;;;10.00;5.53;;;;;;;25.84;100.00;101243.59;2078108;28;20196;-65
2023/07/13 01:27:02;;;;;;;7.87;5.90;;;;;;;25.83;100.00;101236.34;2080865;28;20209;-65
2023/07/13 01:28:05;;;;;;;8.73;6.13;;;;;;;25.82;100.00;101258.31;2080951;28;20633;-65
2023/07/13 01:29:05;;;;;;;13.60;6.03;;;;;;;25.79;100.00;101247.25;2080937;28;20181;-66
2023/07/13 01:30:06;;;;;;;9.10;5.93;;;;;;;25.77;100.00;101244.13;2080484;28;20267;-65
2023/07/13 01:31:08;;;;;;;9.53;6.33;;;;;;;25.17;100.00;101152.25;2088751;28;20184;-66
2023/07/13 01:32:15;;;;;;;11.10;5.90;;;;;;;25.72;100.00;101236.41;2088280;28;20192;-65
2023/07/13 01:33:18;;;;;;;8.60;5.60;;;;;;;25.66;100.00;101230.00;2080971;28;20204;-65
2023/07/13 01:34:18;;;;;;;10.77;6.00;;;;;;;25.69;100.00;101229.72;2074486;28;20186;-65
2023/07/13 01:35:18;;;;;;;8.00;6.57;;;;;;;25.66;100.00;101236.47;2078105;28;20643;-65
2023/07/13 01:36:21;;;;;;;11.93;6.90;;;;;;;25.65;100.00;101234.88;2081086;28;20220;-65
2023/07/13 01:37:26;;;;;;;8.87;6.07;;;;;;;25.00;100.00;101143.03;2080811;28;20188;-65
2023/07/13 01:38:26;;;;;;;9.63;6.40;;;;;;;25.59;100.00;101234.16;2080753;28;20208;-65
2023/07/13 01:39:26;;;;;;;10.10;6.17;;;;;;;25.58;100.00;101231.84;2078913;28;20184;-66
2023/07/13 01:40:28;;;;;;;9.13;6.20;;;;;;;25.57;100.00;101233.13;2075792;28;20188;-65
2023/07/13 01:41:29;;;;;;;8.03;5.77;;;;;;;25.37;100.00;101205.84;2080759;28;20239;-66
2023/07/13 01:42:30;;;;;;;9.87;6.07;;;;;;;24.85;100.00;101131.22;2073194;28;20674;-65
2023/07/13 01:43:30;;;;;;;6.77;5.87;;;;;;;25.45;100.00;101212.53;2086520;28;20234;-65
2023/07/13 01:44:31;;;;;;;10.40;6.40;;;;;;;25.48;100.00;101225.66;2082656;28;20224;-66
2023/07/13 01:45:31;;;;;;;6.37;5.77;;;;;;;25.23;100.00;101189.13;2080846;28;20674;-66
2023/07/13 01:46:32;;;;;;;9.37;6.00;;;;;;;25.03;100.00;101176.00;2080878;28;20201;-66
2023/07/13 01:47:33;;;;;;;9.27;5.97;;;;;;;25.34;100.00;101226.00;2080777;28;20630;-65
2023/07/13 01:48:33;;;;;;;6.53;5.77;;;;;;;25.31;100.00;101224.97;2078820;28;20227;-65
2023/07/13 01:49:34;;;;;;;6.70;5.90;;;;;;;25.27;100.00;101227.28;2073682;28;20204;-66
2023/07/13 01:50:34;;;;;;;6.67;5.63;;;;;;;24.57;100.00;101124.00;2081449;28;20187;-66
2023/07/13 01:51:35;;;;;;;9.57;6.20;;;;;;;25.25;100.00;101229.06;2079097;28;20200;-66
2023/07/13 01:52:35;;;;;;;9.03;5.93;;;;;;;25.21;100.00;101234.22;2081230;28;20247;-65
2023/07/13 01:53:36;;;;;;;11.23;5.83;;;;;;;25.20;100.00;101227.00;2080698;28;20193;-65
2023/07/13 01:54:37;;;;;;;7.80;5.87;;;;;;;25.22;100.00;101225.22;2080923;28;20223;-65
2023/07/13 01:55:38;;;;;;;10.50;5.67;;;;;;;24.68;100.00;101144.66;2080879;28;20201;-65
2023/07/13 01:56:39;;;;;;;7.80;5.70;;;;;;;25.20;100.00;101224.19;2080365;28;20180;-65
2023/07/13 01:57:40;;;;;;;8.27;5.73;;;;;;;25.19;100.00;101229.06;2080442;28;20646;-66
2023/07/13 01:58:40;;;;;;;6.67;5.70;;;;;;;25.18;100.00;101229.63;2080539;28;20197;-66
2023/07/13 01:59:40;;;;;;;9.43;6.07;;;;;;;25.17;100.00;101225.22;2081320;28;20165;-66
2023/07/13 02:00:41;;;;;;;7.30;5.67;;;;;;;25.08;100.00;101219.84;2080886;28;20217;-65
2023/07/13 02:01:41;;;;;;;8.73;5.60;;;;;;;25.16;100.00;101227.28;2080362;28;20217;-66
2023/07/13 02:02:42;;;;;;;7.57;6.10;;;;;;;25.14;100.00;101221.38;2080842;28;20650;-65
2023/07/13 02:03:43;;;;;;;6.43;5.47;;;;;;;25.03;100.00;101224.19;2084115;28;20196;-66
2023/07/13 02:04:43;;;;;;;7.07;5.40;;;;;;;24.86;100.00;101191.50;2086617;28;20196;-66
2023/07/13 02:05:44;;;;;;;7.87;5.40;;;;;;;24.49;100.00;101143.59;2080560;28;20252;-65
2023/07/13 02:06:45;;;;;;;8.57;5.80;;;;;;;24.98;100.00;101219.31;2080777;28;20181;-66
2023/07/13 02:07:45;;;;;;;9.67;6.00;;;;;;;24.98;100.00;101233.50;2081217;28;20242;-65
2023/07/13 02:08:46;;;;;;;11.67;6.10;;;;;;;24.96;100.00;101235.28;2072941;28;20201;-65
2023/07/13 02:09:46;;;;;;;12.07;6.57;;;;;;;24.92;100.00;101232.72;2079028;28;20217;-66
2023/07/13 02:10:47;;;;;;;9.60;5.90;;;;;;;24.90;100.00;101231.69;2080497;28;20181;-66
2023/07/13 02:11:48;;;;;;;10.33;5.97;;;;;;;24.90;100.00;101226.03;2075827;28;20194;-65
2023/07/13 02:12:50;;;;;;;8.83;5.90;;;;;;;24.47;100.00;101168.06;2076047;28;20177;-66
2023/07/13 02:13:51;;;;;;;8.33;5.90;;;;;;;24.75;100.00;101203.63;2080573;28;20177;-65
2023/07/13 02:14:52;;;;;;;8.10;5.60;;;;;;;24.83;100.00;101224.47;2080515;28;20279;-65
2023/07/13 02:15:52;;;;;;;10.70;5.80;;;;;;;24.84;100.00;101220.38;2080484;28;20177;-65
2023/07/13 02:16:53;;;;;;;7.60;5.67;;;;;;;24.91;100.00;101236.06;2081009;28;20267;-66
2023/07/13 02:17:53;;;;;;;8.40;6.07;;;;;;;24.88;100.00;101226.53;2080789;28;20682;-66
2023/07/13 02:18:55;;;;;;;9.20;6.03;;;;;;;24.50;100.00;101179.13;2080505;28;20204;-66
2023/07/13 02:19:55;;;;;;;7.87;5.87;;;;;;;24.78;100.00;101219.59;2080758;28;20662;-65
2023/07/13 02:20:55;;;;;;;7.83;5.67;;;;;;;24.84;100.00;101237.38;2080765;28;20589;-65
2023/07/13 02:21:56;;;;;;;8.27;5.93;;;;;;;24.81;100.00;101229.91;2080622;28;20221;-65
2023/07/13 02:22:56;;;;;;;8.30;5.40;;;;;;;24.80;100.00;101242.53;2080247;28;20196;-65
2023/07/13 02:23:57;;;;;;;13.33;6.33;;;;;;;24.35;100.00;101170.13;2080592;28;20169;-66
2023/07/13 02:24:58;;;;;;;10.77;5.90;;;;;;;24.75;100.00;101243.31;2080520;28;20177;-65
2023/07/13 02:26:00;;;;;;;12.93;6.60;;;;;;;24.67;100.00;101228.09;2072386;28;20194;-66
2023/07/13 02:27:00;;;;;;;11.77;6.73;;;;;;;23.88;100.00;101113.66;2079992;28;20204;-65
2023/07/13 02:28:01;;;;;;;11.80;6.40;;;;;;;24.65;100.00;101241.25;2075297;28;20186;-66
2023/07/13 02:29:01;;;;;;;8.53;6.50;;;;;;;24.67;100.00;101241.50;2076979;28;20307;-66
2023/07/13 02:30:02;;;;;;;8.97;6.07;;;;;;;24.66;100.00;101240.72;2080479;28;20200;-66
2023/07/13 02:31:08;;;;;;;10.10;6.27;;;;;;;24.66;100.00;101242.81;2078102;28;20180;-66
2023/07/13 02:32:08;;;;;;;9.60;5.90;;;;;;;24.55;100.00;101231.41;2074083;28;20617;-65
2023/07/13 02:33:09;;;;;;;11.07;6.20;;;;;;;24.57;100.00;101238.13;2080786;28;20212;-65
2023/07/13 02:34:09;;;;;;;18.70;7.43;;;;;;;24.64;100.00;101249.00;2081071;28;20181;-65
2023/07/13 02:35:10;;;;;;;18.53;7.30;;;;;;;24.67;100.00;101252.84;2081793;28;20196;-66
2023/07/13 02:36:11;;;;;;;14.17;7.00;;;;;;;24.67;100.00;101247.94;2080556;28;20645;-67
2023/07/13 02:37:12;;;;;;;14.83;7.13;;;;;;;24.60;100.00;101239.19;2080299;28;20208;-66
2023/07/13 02:38:12;;;;;;;13.60;6.23;;;;;;;24.68;100.00;101249.50;2080653;28;20666;-66
2023/07/13 02:39:13;;;;;;;10.47;6.20;;;;;;;24.67;100.00;101253.59;2080343;28;20196;-65
2023/07/13 02:40:14;;;;;;;13.00;6.40;;;;;;;24.67;100.00;101256.44;2080471;28;20176;-65
2023/07/13 02:41:14;;;;;;;12.37;6.37;;;;;;;24.63;100.00;101244.63;2079586;28;20177;-65
2023/07/13 02:42:15;;;;;;;12.10;6.30;;;;;;;24.66;100.00;101252.06;2080356;28;20197;-66
2023/07/13 02:43:15;;;;;;;8.20;6.20;;;;;;;24.68;100.00;101254.41;2080983;28;20692;-66
2023/07/13 02:44:15;;;;;;;7.70;6.30;;;;;;;24.55;100.00;101237.09;2080572;28;20192;-66
2023/07/13 02:45:16;;;;;;;9.37;5.97;;;;;;;24.28;100.00;101193.28;2080734;28;20265;-65
2023/07/13 02:46:16;;;;;;;9.00;6.57;;;;;;;24.69;100.00;101253.88;2080621;28;20271;-65
2023/07/13 02:47:17;;;;;;;10.00;6.67;;;;;;;24.66;100.00;101254.91;2080303;28;20199;-66
2023/07/13 02:48:17;;;;;;;8.83;6.40;;;;;;;24.20;100.00;101185.81;2080703;28;20276;-65
2023/07/13 02:49:18;;;;;;;9.07;5.50;;;;;;;24.64;100.00;101257.50;2082029;28;20181;-66
2023/07/13 02:50:18;;;;;;;9.37;5.77;;;;;;;24.61;100.00;101249.25;2087981;28;20622;-66
2023/07/13 02:51:19;;;;;;;10.90;6.03;;;;;;;24.59;100.00;101257.47;2080785;28;20177;-66
2023/07/13 02:52:20;;;;;;;10.23;6.50;;;;;;;24.60;100.00;101256.97;2080271;28;20196;-65
2023/07/13 02:53:20;;;;;;;9.80;6.40;;;;;;;24.57;100.00;101257.94;2080752;28;20181;-65
2023/07/13 02:54:20;;;;;;;13.73;6.40;;;;;;;24.52;100.00;101257.97;2074723;28;20247;-66
2023/07/13 02:55:21;;;;;;;15.90;6.93;;;;;;;24.51;100.00;101254.34;2076701;28;20180;-65
2023/07/13 02:56:26;;;;;;;13.67;7.07;;;;;;;24.51;100.00;101259.25;2079877;28;20192;-65
2023/07/13 02:57:28;;;;;;;12.67;7.13;;;;;;;24.42;100.00;101254.59;2079988;28;20184;-65
2023/07/13 02:58:28;;;;;;;15.97;6.47;;;;;;;23.52;100.00;101135.19;2080742;28;20181;-65
2023/07/13 02:59:28;;;;;;;16.10;7.17;;;;;;;24.40;100.00;101264.88;2080718;28;20670;-65
2023/07/13 03:00:29;;;;;;;12.73;6.73;;;;;;;24.40;100.00;101267.72;2080528;28;20207;-66
2023/07/13 03:01:30;;;;;;;20.37;6.83;;;;;;;24.36;100.00;101258.72;2080080;28;20242;-65
2023/07/13 03:02:30;;;;;;;13.20;6.53;;;;;;;24.36;100.00;101267.97;2080424;28;20580;-65
2023/07/13 03:03:31;;;;;;;14.87;7.30;;;;;;;24.32;100.00;101261.81;2080307;28;20231;-65
2023/07/13 03:04:31;;;;;;;11.60;6.77;;;;;;;24.38;100.00;101268.25;2080330;28;20266;-65
2023/07/13 03:05:31;;;;;;;10.77;6.43;;;;;;;24.35;100.00;101274.16;2080338;28;20560;-65
2023/07/13 03:06:33;;;;;;;12.00;6.70;;;;;;;23.77;100.00;101192.88;2080337;28;20231;-65
2023/07/13 03:07:33;;;;;;;12.13;6.50;;;;;;;24.34;100.00;101279.06;2080907;28;20177;-66
2023/07/13 03:08:34;;;;;;;12.43;7.10;;;;;;;24.36;100.00;101284.97;2072565;28;20208;-65
2023/07/13 03:09:36;;;;;;;11.53;7.27;;;;;;;24.25;100.00;101265.13;2078208;28;20666;-66
2023/07/13 03:10:36;;;;;;;10.13;6.63;;;;;;;24.33;100.00;101279.56;2080289;28;20196;-66
2023/07/13 03:11:37;;;;;;;9.13;6.80;;;;;;;24.32;100.00;101275.19;2080162;28;20283;-65
2023/07/13 03:12:37;;;;;;;10.30;6.73;;;;;;;24.33;100.00;101274.69;2080512;28;20189;-65
2023/07/13 03:13:38;;;;;;;9.03;6.20;;;;;;;24.28;100.00;101281.09;2080288;28;20228;-65
2023/07/13 03:14:39;;;;;;;9.63;6.90;;;;;;;24.27;100.00;101275.94;2078886;28;20268;-65
2023/07/13 03:15:39;;;;;;;8.90;6.30;;;;;;;24.27;100.00;101270.28;2080180;28;20177;-66
2023/07/13 03:16:40;;;;;;;9.17;6.47;;;;;;;24.08;100.00;101247.31;2080898;28;20183;-66
2023/07/13 03:17:40;;;;;;;7.77;6.37;;;;;;;24.25;100.00;101272.84;2087648;28;20188;-66
2023/07/13 03:18:41;;;;;;;6.70;6.00;;;;;;;24.25;100.00;101273.63;2082268;28;20239;-66
2023/07/13 03:19:41;;;;;;;7.87;6.47;;;;;;;24.20;100.00;101276.44;2080426;28;20189;-66
2023/07/13 03:20:42;;;;;;;8.40;5.93;;;;;;;24.19;100.00;101272.84;2076530;28;20194;-65
2023/07/13 03:21:42;;;;;;;7.57;6.23;;;;;;;24.20;100.00;101287.78;2074553;28;20286;-65
2023/07/13 03:22:43;;;;;;;8.27;6.47;;;;;;;24.17;100.00;101274.63;2079797;28;20173;-66
2023/07/13 03:23:43;;;;;;;7.37;6.33;;;;;;;24.17;100.00;101283.91;2081716;28;20295;-66
2023/07/13 03:24:44;;;;;;;8.23;6.37;;;;;;;23.87;100.00;101248.00;2082328;28;20792;-65
2023/07/13 03:25:45;;;;;;;7.93;6.63;;;;;;;24.15;100.00;101286.47;2081994;28;20185;-65
2023/07/13 03:26:45;;;;;;;7.83;6.33;;;;;;;24.19;100.00;101284.16;2081852;28;20204;-65
2023/07/13 03:27:46;;;;;;;7.40;6.37;;;;;;;24.23;100.00;101281.06;2081928;28;20199;-65
2023/07/13 03:28:46;;;;;;;9.43;6.60;;;;;;;24.23;100.00;101290.34;2081634;28;20283;-66
2023/07/13 03:29:47;;;;;;;10.40;6.50;;;;;;;24.21;100.00;101280.81;2082008;28;20204;-65
2023/07/13 03:30:47;;;;;;;9.70;6.37;;;;;;;24.30;100.00;101280.59;2080017;28;20177;-66
2023/07/13 03:31:47;;;;;;;9.53;6.90;;;;;;;24.35;100.00;101280.59;2076160;28;20778;-65
2023/07/13 03:32:48;;;;;;;7.97;6.77;;;;;;;24.37;100.00;101278.00;2082474;28;20626;-65
2023/07/13 03:33:49;;;;;;;8.57;6.13;;;;;;;24.08;100.00;101229.53;2081891;28;20197;-66
2023/07/13 03:34:49;;;;;;;7.20;6.40;;;;;;;24.42;100.00;101265.91;2081631;28;20212;-65
2023/07/13 03:35:49;;;;;;;9.53;6.23;;;;;;;24.46;100.00;101268.53;2081528;28;20193;-66
2023/07/13 03:36:50;;;;;;;8.20;6.13;;;;;;;23.68;100.00;101142.19;2081585;28;20272;-66
2023/07/13 03:37:51;;;;;;;10.43;5.90;;;;;;;24.54;100.00;101263.88;2078329;28;20313;-66
2023/07/13 03:38:55;;;;;;;10.57;6.23;;;;;;;24.56;100.00;101269.81;2076049;28;20291;-65
2023/07/13 03:39:55;;;;;;;13.27;7.07;;;;;;;24.57;100.00;101268.53;2081409;28;20253;-65
2023/07/13 03:40:55;;;;;;;15.80;7.10;;;;;;;24.57;100.00;101263.63;2080715;28;20659;-65
2023/07/13 03:41:56;;;;;;;18.10;7.33;;;;;;;24.60;100.00;101265.47;2081980;28;20617;-66
2023/07/13 03:42:56;;;;;;;15.17;7.00;;;;;;;24.64;100.00;101265.22;2081279;28;20185;-65
2023/07/13 03:43:57;;;;;;;14.70;6.53;;;;;;;24.68;100.00;101260.84;2075623;28;20201;-65
2023/07/13 03:44:57;;;;;;;14.67;7.23;;;;;;;24.69;100.00;101268.06;2078602;28;20232;-66
2023/07/13 03:45:58;;;;;;;12.90;6.70;;;;;;;24.73;100.00;101268.56;2081816;28;20197;-65
2023/07/13 03:46:58;;;;;;;13.17;7.00;;;;;;;24.77;100.00;101268.31;2084349;28;20663;-66
2023/07/13 03:47:59;;;;;;;16.07;7.03;;;;;;;24.77;100.00;101266.25;2088652;28;20604;-66
2023/07/13 03:49:00;;;;;;;17.97;7.50;;;;;;;24.82;100.00;101278.88;2080911;28;20599;-65
2023/07/13 03:50:00;;;;;;;20.83;7.57;;;;;;;24.83;100.00;101269.84;2073963;28;20304;-66
2023/07/13 03:51:00;;;;;;;17.33;7.43;;;;;;;24.89;100.00;101267.81;2081112;28;20184;-66
2023/07/13 03:52:01;;;;;;;15.83;7.10;;;;;;;24.95;100.00;101273.44;2080544;28;20613;-65
2023/07/13 03:53:01;;;;;;;14.50;7.00;;;;;;;24.96;100.00;101275.78;2082059;28;20272;-65
2023/07/13 03:54:02;;;;;;;11.10;7.13;;;;;;;24.98;100.00;101276.03;2081050;28;20189;-66
2023/07/13 03:55:03;;;;;;;17.43;7.17;;;;;;;24.83;100.00;101249.25;2080971;28;20252;-66
2023/07/13 03:56:04;;;;;;;16.60;7.40;;;;;;;25.04;100.00;101273.97;2081835;28;20173;-66
2023/07/13 03:57:05;;;;;;;15.87;7.57;;;;;;;25.03;100.00;101278.09;2081838;28;20552;-66
2023/07/13 03:58:34;;;;;;;18.23;7.43;;;;;;;25.05;100.00;101280.41;2082200;28;20598;-65
2023/07/13 03:59:35;;;;;;;18.00;7.00;;;;;;;25.08;100.00;101274.47;2073619;28;20201;-66
2023/07/13 04:00:35;;;;;;;20.47;8.03;;;;;;;25.06;100.00;101276.28;2074812;28;20667;-65
2023/07/13 04:01:36;;;;;;;20.60;7.50;;;;;;;25.14;100.00;101272.44;2081711;28;20252;-65
2023/07/13 04:02:37;;;;;;;17.90;7.00;;;;;;;25.14;100.00;101272.44;2081875;28;20271;-66
2023/07/13 04:03:38;;;;;;;16.13;6.37;;;;;;;24.88;100.00;101246.38;2081490;28;20177;-65
2023/07/13 04:04:40;;;;;;;17.80;7.00;;;;;;;25.17;100.00;101267.78;2081710;28;20221;-66
2023/07/13 04:05:41;;;;;;;13.53;7.07;;;;;;;25.21;100.00;101277.56;2081001;28;20192;-66
2023/07/13 04:06:41;;;;;;;12.73;6.80;;;;;;;25.25;100.00;101274.47;2081212;28;20201;-66
2023/07/13 04:07:41;;;;;;;16.73;7.20;;;;;;;25.28;100.00;101273.47;2081938;28;20193;-66
2023/07/13 04:08:42;;;;;;;16.80;7.00;;;;;;;25.29;100.00;101267.25;2081099;28;20173;-65
2023/07/13 04:09:42;;;;;;;12.43;7.23;;;;;;;25.31;100.00;101276.03;2081814;28;20222;-65
2023/07/13 04:10:43;;;;;;;14.77;7.07;;;;;;;24.74;100.00;101184.31;2083629;28;20682;-65
2023/07/13 04:11:44;;;;;;;16.47;7.37;;;;;;;25.37;100.00;101276.78;2081480;28;20185;-65
2023/07/13 04:12:44;;;;;;;14.73;7.07;;;;;;;25.40;100.00;101272.13;2075747;28;20693;-66
2023/07/13 04:13:45;;;;;;;18.47;7.60;;;;;;;24.56;100.00;101136.66;2074853;28;20194;-65
2023/07/13 04:14:46;;;;;;;19.80;7.53;;;;;;;25.45;100.00;101272.13;2077071;28;20363;-66
2023/07/13 04:15:46;;;;;;;22.57;7.97;;;;;;;25.45;100.00;101271.34;2078922;28;20173;-66
2023/07/13 04:16:46;;;;;;;18.60;7.70;;;;;;;25.47;100.00;101268.75;2074713;28;20180;-66
2023/07/13 04:17:47;;;;;;;17.80;8.40;;;;;;;25.48;100.00;101279.59;2080928;28;20196;-65
2023/07/13 04:18:48;;;;;;;22.37;8.53;;;;;;;25.52;100.00;101268.75;2073280;28;20169;-66
2023/07/13 04:19:49;;;;;;;17.40;7.80;;;;;;;25.54;100.00;101268.25;2083689;28;20176;-67
2023/07/13 04:20:50;;;;;;;17.07;7.30;;;;;;;25.25;100.00;101217.72;2087510;28;20200;-67
2023/07/13 04:21:50;;;;;;;21.10;7.13;;;;;;;25.60;100.00;101269.00;2080767;28;20185;-67
2023/07/13 04:22:53;;;;;;;12.70;6.80;;;;;;;25.64;100.00;101275.19;2077126;28;20192;-67
2023/07/13 04:23:53;;;;;;;17.80;7.47;;;;;;;25.66;100.00;101276.19;2080988;28;20705;-68
2023/07/13 04:24:54;;;;;;;8.73;4.50;;;;;;;25.64;100.00;101266.66;2080499;28;20552;-61
2023/07/13 04:25:54;;;;;;;3.30;3.00;;;;;;;26.09;100.00;101291.53;2081369;28;20269;-59
2023/07/13 04:26:59;;;;;;;10.47;3.93;;;;;;;26.43;100.00;101292.09;2081293;28;20185;-60
2023/07/13 04:27:59;;;;;;;12.87;5.53;;;;;;;26.86;100.00;101278.91;2081477;28;20568;-61
2023/07/13 04:29:00;;;;;;;8.13;4.27;;;;;;;26.89;100.00;101230.28;2081929;28;20278;-60
2023/07/13 04:30:00;;;;;;;8.63;4.23;;;;;;;27.58;100.00;101276.91;2077593;28;20215;-60
2023/07/13 04:31:01;;;;;;;7.33;4.10;;;;;;;27.61;100.00;101247.38;2078956;28;20197;-60
2023/07/13 04:32:01;;;;;;;10.73;5.47;;;;;;;28.07;100.00;101283.31;2080398;28;20197;-60
2023/07/13 04:33:02;;;;;;;12.73;7.23;;;;;;;28.13;100.00;101281.94;2081149;28;20196;-60
2023/07/13 04:34:02;;;;;;;15.40;6.00;;;;;;;27.83;100.00;101224.34;2080989;28;20181;-59
2023/07/13 04:35:04;;;;;;;9.43;4.83;;;;;;;28.27;100.00;101279.94;2080850;28;20228;-61
2023/07/13 04:36:05;;;;;;;11.33;5.20;;;;;;;28.43;100.00;101276.09;2080684;28;20628;-60
2023/07/13 04:37:06;;;;;;;11.23;6.07;;;;;;;28.51;100.00;101259.91;2080727;28;20197;-60
2023/07/13 04:38:06;;;;;;;9.53;5.40;;;;;;;28.60;100.00;101265.97;2080643;28;20212;-60
2023/07/13 04:39:07;;;;;;;16.58;7.18;;;;;;;28.57;100.00;101252.81;2080816;28;20188;-60
2023/07/13 04:40:11;;;;;;;11.47;6.07;;;;;;;28.65;100.00;101256.56;2081194;28;20212;-60